Time;durP1;ratioP1;P1;durP2;ratioP2;P2;SDS_P1;SDS_P2;PMS_P1;PMS_P2;Temp;Humidity;BMP_temperature;BMP_pressure;BME280_temperature;BME280_humidity;BME280_pressure;Samples;Min_cycle;Max_cycle;Signal;HPM_P1;HPM_P2
2023/09/02 00:01:02;;;;;;;7.15;5.32;;;15.30;99.90;;;;;;7347563;32;20119;-57
2023/09/02 00:05:05;;;;;;;8.45;5.97;;;15.30;99.90;;;;;;7344302;32;20726;-57
2023/09/02 00:09:06;;;;;;;9.40;6.80;;;15.30;99.90;;;;;;7348733;32;20164;-56
2023/09/02 00:13:08;;;;;;;11.07;6.70;;;15.30;99.90;;;;;;7353438;32;20100;-56
2023/09/02 00:17:11;;;;;;;12.63;7.45;;;15.30;99.90;;;;;;7351791;32;20146;-57
2023/09/02 00:21:13;;;;;;;9.80;7.00;;;15.30;99.90;;;;;;7352167;32;20351;-56
2023/09/02 00:25:15;;;;;;;10.70;7.03;;;15.40;99.90;;;;;;7350281;32;20103;-56
2023/09/02 00:29:16;;;;;;;8.05;6.37;;;15.40;99.90;;;;;;7352679;32;20107;-55
2023/09/02 00:33:18;;;;;;;9.40;6.07;;;15.40;99.90;;;;;;7352109;32;20099;-57
2023/09/02 00:37:20;;;;;;;8.13;6.82;;;15.40;99.90;;;;;;7354483;32;20586;-56
2023/09/02 00:41:35;;;;;;;8.30;6.55;;;15.50;99.90;;;;;;7271546;32;20104;-58
2023/09/02 00:45:38;;;;;;;12.10;7.10;;;15.50;99.90;;;;;;7349978;32;20647;-55
2023/09/02 00:49:39;;;;;;;10.13;6.45;;;15.50;99.90;;;;;;7351670;32;20125;-57
2023/09/02 00:53:41;;;;;;;7.40;6.50;;;15.50;99.90;;;;;;7345823;32;20102;-57
2023/09/02 00:57:44;;;;;;;7.62;6.15;;;15.50;99.90;;;;;;7314928;32;20121;-57
2023/09/02 01:01:46;;;;;;;9.02;5.82;;;15.50;99.90;;;;;;7278569;32;20123;-57
2023/09/02 01:05:48;;;;;;;6.78;5.75;;;15.50;99.90;;;;;;7360993;32;20212;-56
2023/09/02 01:09:49;;;;;;;8.30;5.68;;;15.50;99.90;;;;;;7355583;32;20253;-57
2023/09/02 01:13:51;;;;;;;13.80;5.93;;;15.50;99.90;;;;;;7348914;32;20216;-56
2023/09/02 01:17:53;;;;;;;10.23;5.95;;;15.40;99.90;;;;;;7353475;32;20095;-56
2023/09/02 01:22:18;;;;;;;6.40;5.12;;;15.30;99.90;;;;;;7346515;32;20541;-58
2023/09/02 01:26:54;;;;;;;6.82;5.07;;;15.40;99.90;;;;;;7353554;32;20113;-56
2023/09/02 01:30:56;;;;;;;6.93;4.75;;;15.40;99.90;;;;;;7345381;32;20506;-57
2023/09/02 01:35:03;;;;;;;10.13;5.60;;;15.40;99.90;;;;;;7354371;32;20122;-56
2023/09/02 01:39:06;;;;;;;6.53;4.43;;;15.30;99.90;;;;;;7346778;32;20153;-58
2023/09/02 01:43:08;;;;;;;5.65;4.65;;;15.30;99.90;;;;;;7348677;32;20883;-58
2023/09/02 01:47:12;;;;;;;8.35;4.32;;;15.30;99.90;;;;;;7349431;32;20099;-57
2023/09/02 01:51:14;;;;;;;5.35;4.25;;;15.30;99.90;;;;;;7350214;32;20237;-57
2023/09/02 01:55:16;;;;;;;9.82;3.78;;;15.30;99.90;;;;;;7349255;32;20371;-57
2023/09/02 01:59:18;;;;;;;5.80;3.90;;;15.20;99.90;;;;;;7350080;32;20260;-56
2023/09/02 02:03:28;;;;;;;7.37;4.50;;;15.20;99.90;;;;;;7297125;32;20212;-57
2023/09/02 02:07:35;;;;;;;4.47;3.42;;;15.20;99.90;;;;;;7354277;32;20596;-56
2023/09/02 02:11:38;;;;;;;5.85;3.62;;;15.10;99.90;;;;;;7355542;32;20122;-57
2023/09/02 02:15:40;;;;;;;5.10;3.20;;;15.10;99.90;;;;;;7346953;32;20150;-56
2023/09/02 02:19:43;;;;;;;6.40;3.92;;;15.00;99.90;;;;;;7352574;32;20547;-56
2023/09/02 02:23:45;;;;;;;5.37;3.25;;;15.00;99.90;;;;;;7358163;32;20110;-56
2023/09/02 02:27:47;;;;;;;8.75;3.70;;;14.90;99.90;;;;;;7343250;32;20132;-56
2023/09/02 02:31:49;;;;;;;4.80;3.97;;;14.90;99.90;;;;;;7355085;32;20108;-57
2023/09/02 02:35:51;;;;;;;8.23;4.50;;;14.90;99.90;;;;;;7345111;32;20127;-56
2023/09/02 02:39:53;;;;;;;6.68;4.03;;;15.00;99.90;;;;;;7356852;32;20126;-56
2023/09/02 02:43:54;;;;;;;4.95;3.80;;;14.90;99.90;;;;;;7350264;32;20123;-56
2023/09/02 02:47:57;;;;;;;4.82;3.55;;;15.00;99.90;;;;;;7338350;32;20100;-56
2023/09/02 02:52:01;;;;;;;4.60;3.95;;;14.90;99.90;;;;;;7354023;32;20156;-56
2023/09/02 02:56:03;;;;;;;5.55;3.90;;;14.90;99.90;;;;;;7345422;32;20140;-56
2023/09/02 03:00:08;;;;;;;7.32;3.85;;;14.90;99.90;;;;;;7350107;32;20232;-56
2023/09/02 03:04:10;;;;;;;8.25;3.67;;;14.90;99.90;;;;;;7355505;32;20254;-57
2023/09/02 03:08:11;;;;;;;5.20;4.12;;;15.00;99.90;;;;;;7288251;32;20178;-57
2023/09/02 03:12:13;;;;;;;5.25;3.90;;;14.90;99.90;;;;;;7351794;32;20116;-56
2023/09/02 03:16:15;;;;;;;6.15;3.80;;;14.90;99.90;;;;;;7343588;32;20111;-55
2023/09/02 03:20:17;;;;;;;7.68;3.62;;;14.90;99.90;;;;;;7355845;32;20546;-56
2023/09/02 03:24:18;;;;;;;5.75;3.62;;;14.90;99.90;;;;;;7354647;32;20118;-56
2023/09/02 03:28:20;;;;;;;7.20;4.00;;;15.00;99.90;;;;;;7351338;32;20103;-58
2023/09/02 03:32:26;;;;;;;3.75;3.17;;;15.00;99.90;;;;;;7353060;32;20197;-55
2023/09/02 03:36:27;;;;;;;4.72;3.60;;;15.00;99.90;;;;;;7347166;32;20123;-56
2023/09/02 03:40:29;;;;;;;6.82;3.10;;;15.10;99.90;;;;;;7353850;32;20205;-56
2023/09/02 03:44:31;;;;;;;7.75;3.50;;;15.10;99.90;;;;;;7350763;32;20121;-58
2023/09/02 03:48:33;;;;;;;4.55;3.17;;;15.10;99.90;;;;;;7352436;32;20286;-57
2023/09/02 03:52:35;;;;;;;4.00;2.65;;;15.20;99.90;;;;;;7347401;32;20137;-57
2023/09/02 03:56:39;;;;;;;6.80;3.05;;;15.20;99.90;;;;;;7349227;32;20118;-57
2023/09/02 04:00:40;;;;;;;3.83;3.10;;;15.30;99.90;;;;;;7355130;32;20438;-57
2023/09/02 04:04:42;;;;;;;6.15;3.15;;;15.20;99.90;;;;;;7348048;32;20364;-56
2023/09/02 04:08:44;;;;;;;4.50;3.00;;;15.20;99.90;;;;;;7344568;32;20104;-56
2023/09/02 04:12:45;;;;;;;6.40;3.72;;;15.30;99.90;;;;;;7350114;32;20127;-57
2023/09/02 04:16:47;;;;;;;6.93;3.55;;;15.30;99.90;;;;;;7341914;32;20190;-57
2023/09/02 04:20:49;;;;;;;6.78;3.37;;;15.30;99.90;;;;;;7346223;32;20107;-57
2023/09/02 04:24:51;;;;;;;5.30;3.90;;;15.20;99.90;;;;;;7349519;32;20352;-57
2023/09/02 04:28:55;;;;;;;6.55;4.05;;;15.20;99.90;;;;;;7347858;32;20230;-57
2023/09/02 04:32:58;;;;;;;5.97;4.40;;;15.10;99.90;;;;;;7345586;32;20127;-56
2023/09/02 04:36:59;;;;;;;7.55;4.32;;;15.00;99.90;;;;;;7346869;32;20221;-57
2023/09/02 04:41:04;;;;;;;5.55;3.67;;;15.00;99.90;;;;;;7350871;32;20623;-57
2023/09/02 04:45:06;;;;;;;8.75;3.42;;;15.00;99.90;;;;;;7347624;32;20148;-56
2023/09/02 04:49:08;;;;;;;5.50;3.20;;;15.00;99.90;;;;;;7347254;32;20127;-56
2023/09/02 04:53:09;;;;;;;4.90;3.45;;;15.00;99.90;;;;;;7349939;32;20243;-56
2023/09/02 04:57:11;;;;;;;3.83;2.70;;;15.00;99.90;;;;;;7336304;32;20549;-57
2023/09/02 05:01:13;;;;;;;6.03;3.45;;;15.00;99.90;;;;;;7348281;32;21831;-56
2023/09/02 05:05:17;;;;;;;6.47;3.12;;;15.00;99.90;;;;;;7344768;32;20948;-57
2023/09/02 05:09:19;;;;;;;4.22;3.20;;;15.00;99.90;;;;;;7337686;32;20198;-57
2023/09/02 05:13:21;;;;;;;7.05;2.97;;;15.10;99.90;;;;;;7350278;32;20147;-56
2023/09/02 05:17:23;;;;;;;2.80;2.47;;;15.10;99.90;;;;;;7336663;32;20262;-56
2023/09/02 05:21:25;;;;;;;4.62;3.45;;;15.10;99.90;;;;;;7343142;32;20229;-55
2023/09/02 05:25:27;;;;;;;5.50;2.70;;;15.20;99.90;;;;;;7288662;32;20099;-57
2023/09/02 05:29:29;;;;;;;6.32;2.83;;;15.20;99.90;;;;;;7332758;32;20131;-57
2023/09/02 05:33:31;;;;;;;5.90;2.92;;;15.20;99.90;;;;;;7343516;32;20106;-56
2023/09/02 05:37:33;;;;;;;4.80;2.60;;;15.20;99.90;;;;;;7348432;32;20486;-56
2023/09/02 05:41:34;;;;;;;4.62;3.03;;;15.20;99.90;;;;;;7348254;32;20728;-56
2023/09/02 05:45:36;;;;;;;4.78;2.72;;;15.20;99.90;;;;;;7349456;32;20160;-56
2023/09/02 05:49:38;;;;;;;3.35;2.35;;;15.30;99.90;;;;;;7348530;32;20107;-56
2023/09/02 05:53:40;;;;;;;3.70;2.03;;;15.30;99.90;;;;;;7349535;32;20185;-56
2023/09/02 05:57:41;;;;;;;3.47;2.12;;;15.40;99.90;;;;;;7350469;32;20130;-56
2023/09/02 06:01:45;;;;;;;3.60;1.92;;;15.60;99.90;;;;;;7346805;32;20103;-58
2023/09/02 06:05:47;;;;;;;2.58;1.58;;;15.70;99.90;;;;;;7329629;32;20095;-57
2023/09/02 06:09:50;;;;;;;2.67;1.65;;;15.70;99.90;;;;;;7352526;32;20121;-58
2023/09/02 06:13:52;;;;;;;4.03;1.83;;;15.80;99.90;;;;;;7351314;32;20103;-56
2023/09/02 06:17:53;;;;;;;6.07;1.95;;;15.90;99.90;;;;;;7352244;32;20340;-57
2023/09/02 06:21:55;;;;;;;3.47;1.77;;;16.00;99.90;;;;;;7352970;32;20191;-58
2023/09/02 06:25:58;;;;;;;4.90;1.40;;;16.10;99.90;;;;;;7350773;32;20111;-56
2023/09/02 06:30:00;;;;;;;2.35;1.67;;;16.20;99.90;;;;;;7354126;32;20224;-58
2023/09/02 06:34:02;;;;;;;2.47;1.40;;;16.20;99.90;;;;;;7352960;32;20131;-57
2023/09/02 06:38:04;;;;;;;2.35;1.60;;;16.30;99.90;;;;;;7352159;32;20125;-57
2023/09/02 06:42:05;;;;;;;3.47;1.48;;;16.30;99.90;;;;;;7348790;32;20505;-58
2023/09/02 06:46:19;;;;;;;2.10;1.73;;;16.40;99.90;;;;;;7352187;32;20212;-57
2023/09/02 06:50:21;;;;;;;1.95;1.40;;;16.40;99.90;;;;;;7349441;32;20246;-56
2023/09/02 06:54:23;;;;;;;2.83;1.30;;;16.50;99.90;;;;;;7344040;32;20186;-59
2023/09/02 06:58:24;;;;;;;2.20;1.20;;;16.60;99.90;;;;;;7343889;32;20496;-58
2023/09/02 07:02:26;;;;;;;3.72;1.50;;;16.70;99.90;;;;;;7350301;32;20127;-57
2023/09/02 07:06:28;;;;;;;1.80;1.30;;;16.80;99.90;;;;;;7356205;32;20427;-57
2023/09/02 07:10:30;;;;;;;1.42;1.33;;;16.80;99.90;;;;;;7356112;32;20207;-57
2023/09/02 07:14:32;;;;;;;5.43;1.60;;;17.00;99.90;;;;;;7346852;32;20125;-57
2023/09/02 07:18:34;;;;;;;4.32;1.12;;;17.00;99.90;;;;;;7256636;32;20470;-58
2023/09/02 07:22:36;;;;;;;1.87;1.10;;;17.10;99.90;;;;;;7338814;32;20266;-57
2023/09/02 07:26:37;;;;;;;2.12;1.30;;;17.20;99.90;;;;;;7356886;32;20182;-59
2023/09/02 07:30:39;;;;;;;2.33;1.20;;;17.30;99.90;;;;;;7347612;32;21866;-58
2023/09/02 07:34:41;;;;;;;3.87;1.20;;;17.30;99.90;;;;;;7358815;32;20446;-58
2023/09/02 07:38:44;;;;;;;3.20;1.20;;;17.40;99.90;;;;;;7352654;32;20141;-58
2023/09/02 07:42:46;;;;;;;4.03;1.10;;;17.60;99.90;;;;;;7352753;32;20129;-57
2023/09/02 07:46:48;;;;;;;4.97;1.42;;;17.60;99.90;;;;;;7351425;32;20565;-57
2023/09/02 07:50:49;;;;;;;1.52;1.20;;;17.70;99.90;;;;;;7339335;32;20246;-58
2023/09/02 07:54:51;;;;;;;2.10;1.50;;;17.70;99.90;;;;;;7342926;32;20329;-56
2023/09/02 07:58:53;;;;;;;1.37;1.17;;;17.70;99.90;;;;;;7348338;32;20110;-58
2023/09/02 08:02:55;;;;;;;2.28;1.08;;;17.60;99.90;;;;;;7351978;32;20206;-58
2023/09/02 08:06:56;;;;;;;2.22;1.42;;;17.60;99.90;;;;;;7351268;32;20117;-57
2023/09/02 08:11:05;;;;;;;2.80;1.00;;;17.70;99.90;;;;;;7308776;32;20700;-57
2023/09/02 08:15:09;;;;;;;1.45;1.33;;;17.70;99.90;;;;;;7346175;32;20087;-57
2023/09/02 08:19:10;;;;;;;4.05;1.42;;;17.70;99.90;;;;;;7350825;32;20155;-57
2023/09/02 08:23:12;;;;;;;2.15;1.20;;;17.80;99.90;;;;;;7340503;32;20191;-57
2023/09/02 08:27:14;;;;;;;3.62;1.65;;;18.00;99.90;;;;;;7344379;32;20163;-57
2023/09/02 08:31:19;;;;;;;1.58;1.30;;;18.10;99.90;;;;;;7348973;32;20096;-57
2023/09/02 08:35:21;;;;;;;2.67;0.95;;;18.20;99.90;;;;;;7351597;32;20220;-59
2023/09/02 08:39:23;;;;;;;2.00;1.10;;;18.30;99.90;;;;;;7345073;32;20123;-57
2023/09/02 08:43:26;;;;;;;1.25;1.10;;;18.50;99.90;;;;;;7343576;32;20108;-58
2023/09/02 08:47:30;;;;;;;2.12;1.25;;;18.60;99.90;;;;;;7237243;32;20103;-58
2023/09/02 08:51:33;;;;;;;4.00;1.20;;;18.80;99.90;;;;;;7349097;32;20198;-57
2023/09/02 08:55:36;;;;;;;1.27;1.15;;;19.00;99.90;;;;;;7293286;32;20144;-56
2023/09/02 08:59:38;;;;;;;2.95;0.98;;;19.10;99.90;;;;;;7350696;32;20129;-57
2023/09/02 09:03:44;;;;;;;2.15;0.80;;;19.30;99.90;;;;;;7352026;32;20103;-57
2023/09/02 09:07:48;;;;;;;2.55;1.67;;;19.50;99.90;;;;;;7345108;32;21011;-58
2023/09/02 09:11:50;;;;;;;1.73;0.90;;;19.50;99.90;;;;;;7350741;32;20385;-59
2023/09/02 09:15:56;;;;;;;1.02;0.80;;;19.60;99.90;;;;;;7352236;32;20099;-58
2023/09/02 09:20:01;;;;;;;3.37;0.80;;;20.10;99.90;;;;;;7341260;32;20135;-57
2023/09/02 09:24:03;;;;;;;1.48;0.80;;;20.70;99.90;;;;;;7344374;32;20106;-59
2023/09/02 09:28:12;;;;;;;1.48;0.68;;;21.00;99.90;;;;;;7347589;32;20160;-58
2023/09/02 09:32:15;;;;;;;1.42;0.70;;;21.40;99.90;;;;;;7350945;32;20103;-57
2023/09/02 09:36:20;;;;;;;2.00;0.80;;;21.50;99.90;;;;;;7348932;32;20197;-58
2023/09/02 09:40:33;;;;;;;0.80;0.60;;;21.70;99.90;;;;;;7347248;32;20205;-59
2023/09/02 09:44:49;;;;;;;4.82;1.08;;;22.20;99.90;;;;;;7343303;32;20187;-58
2023/09/02 09:48:51;;;;;;;3.83;0.70;;;23.00;99.90;;;;;;7345605;32;20194;-58
2023/09/02 09:53:09;;;;;;;2.17;0.62;;;23.70;99.90;;;;;;7347820;32;20501;-58
2023/09/02 09:57:29;;;;;;;1.80;0.60;;;24.20;99.90;;;;;;7347734;32;20107;-58
2023/09/02 10:01:31;;;;;;;2.60;1.00;;;24.30;99.90;;;;;;7351948;32;20478;-59
2023/09/02 10:05:33;;;;;;;2.35;0.88;;;24.10;99.90;;;;;;7343210;32;20158;-58
2023/09/02 10:09:45;;;;;;;1.98;0.90;;;23.40;99.90;;;;;;7340733;32;20126;-58
2023/09/02 10:13:48;;;;;;;2.12;0.60;;;23.20;99.90;;;;;;7345861;32;20156;-57
2023/09/02 10:17:57;;;;;;;3.25;0.77;;;23.50;99.90;;;;;;7341046;32;20312;-58
2023/09/02 10:22:00;;;;;;;2.03;0.68;;;24.90;99.90;;;;;;7339553;32;20126;-59
2023/09/02 10:26:13;;;;;;;1.50;0.65;;;25.50;99.90;;;;;;7343912;32;20279;-58
2023/09/02 10:30:25;;;;;;;2.03;0.70;;;26.40;99.90;;;;;;7346462;32;20314;-57
2023/09/02 10:34:35;;;;;;;1.48;0.70;;;26.70;99.90;;;;;;7351638;32;20478;-58
2023/09/02 10:38:39;;;;;;;2.20;0.73;;;26.70;99.90;;;;;;7349075;32;20127;-57
2023/09/02 10:42:41;;;;;;;3.80;0.90;;;26.10;99.90;;;;;;7350133;32;20126;-58
2023/09/02 10:46:45;;;;;;;1.77;0.47;;;27.20;99.90;;;;;;7346068;32;20190;-58
2023/09/02 10:50:47;;;;;;;1.40;0.50;;;27.40;99.90;;;;;;7353701;32;20127;-58
2023/09/02 10:55:06;;;;;;;4.68;0.80;;;27.20;99.90;;;;;;7353432;32;20107;-56
2023/09/02 10:59:08;;;;;;;2.10;0.70;;;27.30;99.90;;;;;;7347507;32;20201;-57
2023/09/02 11:03:10;;;;;;;1.92;0.80;;;26.10;99.90;;;;;;7345713;32;20161;-58
2023/09/02 11:07:18;;;;;;;2.05;0.60;;;24.60;99.90;;;;;;7352417;32;20657;-57
2023/09/02 11:11:20;;;;;;;3.05;0.77;;;24.60;99.90;;;;;;7355350;32;20174;-57
2023/09/02 11:15:22;;;;;;;3.28;0.90;;;24.50;99.90;;;;;;7352279;32;20186;-58
2023/09/02 11:19:57;;;;;;;3.20;0.57;;;24.30;99.90;;;;;;7346350;32;20121;-58
2023/09/02 11:24:17;;;;;;;2.00;0.75;;;24.30;99.90;;;;;;7307266;32;20246;-59
2023/09/02 11:28:19;;;;;;;1.42;0.60;;;24.10;99.90;;;;;;7350158;32;20120;-57
2023/09/02 11:32:21;;;;;;;3.12;0.82;;;23.90;99.90;;;;;;7353145;32;20142;-57
2023/09/02 11:36:25;;;;;;;3.25;0.90;;;23.50;99.90;;;;;;7350681;32;20127;-58
2023/09/02 11:40:27;;;;;;;1.87;0.55;;;23.60;99.90;;;;;;7355617;32;20267;-58
2023/09/02 11:44:29;;;;;;;1.87;0.90;;;23.70;99.90;;;;;;7352628;32;20116;-57
2023/09/02 11:48:31;;;;;;;2.25;0.70;;;23.80;99.90;;;;;;7350839;32;20343;-58
2023/09/02 11:52:33;;;;;;;3.37;0.82;;;23.70;99.90;;;;;;7348302;32;20233;-57
2023/09/02 11:56:35;;;;;;;2.87;0.90;;;23.60;99.90;;;;;;7349392;32;20132;-58
2023/09/02 12:00:42;;;;;;;1.25;0.70;;;23.30;99.90;;;;;;7344213;32;20179;-58
2023/09/02 12:04:47;;;;;;;2.22;0.80;;;23.10;99.90;;;;;;7337101;32;20148;-57
2023/09/02 12:08:50;;;;;;;0.93;0.67;;;23.00;99.90;;;;;;7350253;32;20106;-58
2023/09/02 12:12:53;;;;;;;2.72;0.98;;;23.10;99.90;;;;;;7353804;32;20304;-58
2023/09/02 12:16:57;;;;;;;2.87;1.00;;;23.20;99.90;;;;;;7353427;32;20118;-57
2023/09/02 12:20:59;;;;;;;1.80;0.80;;;23.10;99.90;;;;;;7349501;32;20131;-59
2023/09/02 12:25:16;;;;;;;1.90;0.80;;;23.40;99.90;;;;;;7343929;32;20291;-57
2023/09/02 12:29:20;;;;;;;2.55;0.70;;;23.40;99.90;;;;;;7348452;32;20564;-57
2023/09/02 12:33:22;;;;;;;2.25;0.60;;;23.30;99.90;;;;;;7351387;32;20649;-59
2023/09/02 12:37:24;;;;;;;2.97;0.62;;;23.40;99.90;;;;;;7350713;32;20258;-58
2023/09/02 12:41:39;;;;;;;2.28;0.75;;;23.50;99.90;;;;;;7344893;32;20161;-58
2023/09/02 12:45:42;;;;;;;2.60;0.77;;;23.50;99.90;;;;;;7347472;32;20095;-56
2023/09/02 12:49:44;;;;;;;2.22;0.80;;;23.40;99.90;;;;;;7354264;32;20132;-58
2023/09/02 12:53:46;;;;;;;2.08;0.88;;;23.50;99.90;;;;;;7351089;32;20182;-58
2023/09/02 12:57:48;;;;;;;3.33;1.20;;;23.40;99.90;;;;;;7348405;32;20126;-58
2023/09/02 13:01:51;;;;;;;1.83;0.90;;;23.40;99.90;;;;;;7344543;32;20526;-58
2023/09/02 13:05:52;;;;;;;4.97;3.20;;;23.30;99.90;;;;;;7352787;32;20224;-58
2023/09/02 13:09:54;;;;;;;7.07;5.20;;;23.50;99.90;;;;;;7350028;32;20118;-58
2023/09/02 13:13:56;;;;;;;8.55;7.05;;;23.90;99.90;;;;;;7351184;32;20696;-58
2023/09/02 13:17:59;;;;;;;11.52;7.20;;;24.20;99.90;;;;;;7283095;32;20535;-59
2023/09/02 13:22:02;;;;;;;8.93;5.90;;;24.30;99.90;;;;;;7350105;32;20172;-58
2023/09/02 13:26:16;;;;;;;6.40;4.07;;;24.30;99.90;;;;;;7349447;32;20122;-58
2023/09/02 13:30:22;;;;;;;6.28;4.05;;;24.40;99.90;;;;;;7347503;32;20277;-59
2023/09/02 13:34:35;;;;;;;7.57;3.78;;;24.40;99.90;;;;;;7347967;32;20107;-58
2023/09/02 13:38:40;;;;;;;5.32;3.30;;;24.30;99.90;;;;;;7299745;32;20476;-58
2023/09/02 13:42:43;;;;;;;7.97;3.62;;;24.20;99.90;;;;;;7340586;32;20127;-58
2023/09/02 13:46:45;;;;;;;6.00;3.12;;;24.30;99.90;;;;;;7345335;32;20091;-58
2023/09/02 13:50:46;;;;;;;6.95;3.00;;;24.20;99.90;;;;;;7346959;32;20129;-58
2023/09/02 13:54:49;;;;;;;8.15;3.42;;;24.50;99.90;;;;;;7349893;32;20148;-58
2023/09/02 13:58:51;;;;;;;5.00;2.78;;;24.40;99.90;;;;;;7340745;32;20123;-58
2023/09/02 14:02:59;;;;;;;8.27;3.28;;;24.30;99.90;;;;;;7349116;32;20581;-57
2023/09/02 14:07:01;;;;;;;8.40;3.70;;;24.40;99.90;;;;;;7341318;32;20550;-58
2023/09/02 14:11:04;;;;;;;8.85;3.37;;;24.90;99.90;;;;;;7349601;32;20206;-57
2023/09/02 14:15:06;;;;;;;6.40;2.83;;;24.80;99.90;;;;;;7342546;32;20411;-58
2023/09/02 14:19:08;;;;;;;6.40;3.75;;;24.50;99.90;;;;;;7353136;32;20385;-57
2023/09/02 14:23:11;;;;;;;10.35;3.80;;;24.10;99.90;;;;;;7351300;32;20493;-58
2023/09/02 14:27:14;;;;;;;5.47;3.30;;;23.90;99.90;;;;;;7342326;32;20632;-58
2023/09/02 14:31:16;;;;;;;8.48;3.30;;;23.60;99.90;;;;;;7347698;32;20103;-57
2023/09/02 14:35:18;;;;;;;7.87;4.22;;;23.40;99.90;;;;;;7352954;32;20627;-58
2023/09/02 14:39:21;;;;;;;7.00;3.95;;;23.20;99.90;;;;;;7347064;32;20191;-58
2023/09/02 14:43:22;;;;;;;6.87;4.50;;;23.40;99.90;;;;;;7349619;32;20174;-59
2023/09/02 14:47:25;;;;;;;6.05;4.78;;;23.50;99.90;;;;;;7348557;32;20221;-57
2023/09/02 14:51:29;;;;;;;7.25;5.87;;;23.60;99.90;;;;;;7351364;32;20107;-60
2023/09/02 14:55:30;;;;;;;9.07;6.60;;;23.70;99.90;;;;;;7348422;32;20112;-57
2023/09/02 14:59:32;;;;;;;13.02;7.78;;;23.70;99.90;;;;;;7346778;32;20096;-57
2023/09/02 15:03:37;;;;;;;10.15;7.87;;;23.40;99.90;;;;;;7351549;32;20866;-57
2023/09/02 15:07:40;;;;;;;12.88;7.87;;;23.00;99.90;;;;;;7349657;32;20102;-57
2023/09/02 15:11:42;;;;;;;11.50;9.50;;;23.10;99.90;;;;;;7353673;32;20227;-56
2023/09/02 15:15:45;;;;;;;13.00;9.30;;;23.20;99.90;;;;;;7357113;32;20225;-58
2023/09/02 15:19:48;;;;;;;13.05;10.50;;;23.30;99.90;;;;;;7358876;32;20119;-56
2023/09/02 15:23:51;;;;;;;11.63;10.07;;;23.10;99.90;;;;;;7355025;32;20114;-57
2023/09/02 15:27:54;;;;;;;12.73;7.95;;;23.10;99.90;;;;;;7351775;32;20273;-58
2023/09/02 15:31:56;;;;;;;7.35;6.65;;;23.10;99.90;;;;;;7350912;32;20107;-58
2023/09/02 15:36:02;;;;;;;13.13;6.60;;;23.00;99.90;;;;;;7338984;32;20178;-58
2023/09/02 15:40:05;;;;;;;9.07;5.82;;;22.90;99.90;;;;;;7351233;32;20449;-58
2023/09/02 15:44:07;;;;;;;7.00;5.00;;;23.00;99.90;;;;;;7349459;32;20126;-57
2023/09/02 15:48:09;;;;;;;10.43;6.25;;;22.90;99.90;;;;;;7344153;32;20099;-58
2023/09/02 15:52:11;;;;;;;11.68;5.87;;;22.90;99.90;;;;;;7352355;32;20245;-57
2023/09/02 15:56:13;;;;;;;11.15;6.28;;;22.80;99.90;;;;;;7353107;32;20316;-58
2023/09/02 16:00:14;;;;;;;8.77;6.85;;;22.70;99.90;;;;;;7340999;32;20234;-57
2023/09/02 16:04:16;;;;;;;7.82;6.93;;;22.40;99.90;;;;;;7347253;32;20162;-58
2023/09/02 16:08:18;;;;;;;7.15;6.55;;;22.30;99.90;;;;;;7349137;32;20148;-58
2023/09/02 16:12:20;;;;;;;8.30;6.10;;;22.10;99.90;;;;;;7349441;32;20103;-58
2023/09/02 16:16:21;;;;;;;7.20;6.50;;;22.10;99.90;;;;;;7348102;32;20179;-60
2023/09/02 16:20:23;;;;;;;8.25;7.47;;;22.20;99.90;;;;;;7350294;32;20249;-57
2023/09/02 16:24:25;;;;;;;8.52;7.72;;;22.20;99.90;;;;;;7340256;32;20143;-58
2023/09/02 16:28:27;;;;;;;9.10;8.20;;;21.90;99.90;;;;;;7332369;32;20121;-59
2023/09/02 16:32:29;;;;;;;8.05;7.25;;;21.90;99.90;;;;;;7338715;32;20095;-58
2023/09/02 16:36:32;;;;;;;7.22;6.57;;;21.90;99.90;;;;;;7344995;32;20228;-59
2023/09/02 16:40:34;;;;;;;9.30;7.85;;;21.90;99.90;;;;;;7339164;32;20107;-59
2023/09/02 16:44:36;;;;;;;8.07;7.28;;;21.80;99.90;;;;;;7346098;32;20133;-58
2023/09/02 16:48:37;;;;;;;7.32;6.60;;;21.70;99.90;;;;;;7344964;32;20185;-58
2023/09/02 16:52:50;;;;;;;7.15;5.97;;;21.90;99.90;;;;;;7344917;32;20178;-58
2023/09/02 16:56:56;;;;;;;7.70;6.50;;;21.80;99.90;;;;;;7349496;32;20169;-58
2023/09/02 17:01:03;;;;;;;8.43;6.70;;;21.60;99.90;;;;;;7345660;32;20422;-57
2023/09/02 17:05:06;;;;;;;8.00;6.07;;;21.60;99.90;;;;;;7300016;32;20775;-58
2023/09/02 17:09:10;;;;;;;6.75;5.97;;;21.60;99.90;;;;;;7342315;32;20119;-57
2023/09/02 17:13:12;;;;;;;7.05;5.70;;;21.50;99.90;;;;;;7350388;32;20119;-58
2023/09/02 17:17:13;;;;;;;6.93;6.00;;;21.50;99.90;;;;;;7346025;32;20186;-58
2023/09/02 17:21:16;;;;;;;8.30;5.70;;;21.50;99.90;;;;;;7342809;32;20458;-59
2023/09/02 17:25:18;;;;;;;6.70;5.47;;;21.30;99.90;;;;;;7340173;32;20357;-59
2023/09/02 17:29:19;;;;;;;7.53;6.62;;;21.30;99.90;;;;;;7338739;32;20096;-59
2023/09/02 17:33:21;;;;;;;6.70;5.97;;;21.20;99.90;;;;;;7344934;32;20315;-59
2023/09/02 17:37:23;;;;;;;6.62;5.95;;;21.00;99.90;;;;;;7357744;32;20111;-59
2023/09/02 17:41:25;;;;;;;6.03;5.50;;;20.80;99.90;;;;;;7347779;32;20131;-60
2023/09/02 17:45:26;;;;;;;10.50;5.25;;;20.70;99.90;;;;;;7297646;32;20183;-60
2023/09/02 17:49:28;;;;;;;6.15;5.65;;;20.40;99.90;;;;;;7335736;32;20107;-58
2023/09/02 17:53:30;;;;;;;6.70;5.93;;;20.30;99.90;;;;;;7357540;32;20091;-59
2023/09/02 17:57:33;;;;;;;7.32;6.62;;;20.20;99.90;;;;;;7353947;32;20171;-58
2023/09/02 18:01:35;;;;;;;12.73;8.70;;;19.90;99.90;;;;;;7342515;32;20190;-58
2023/09/02 18:05:37;;;;;;;16.20;10.05;;;19.80;99.90;;;;;;7350872;32;20511;-58
2023/09/02 18:09:38;;;;;;;13.18;10.75;;;19.60;99.90;;;;;;7347460;32;20104;-58
2023/09/02 18:13:40;;;;;;;16.42;11.20;;;19.40;99.90;;;;;;7342450;32;20274;-60
2023/09/02 18:17:42;;;;;;;13.85;10.00;;;19.30;99.90;;;;;;7347052;32;20152;-58
2023/09/02 18:21:44;;;;;;;13.13;8.77;;;19.10;99.90;;;;;;7337236;32;20312;-60
2023/09/02 18:25:45;;;;;;;10.40;7.90;;;19.00;99.90;;;;;;7320648;32;20107;-59
2023/09/02 18:29:47;;;;;;;8.68;7.68;;;18.90;99.90;;;;;;7342020;32;20862;-58
2023/09/02 18:33:50;;;;;;;10.55;8.10;;;18.70;99.90;;;;;;7344086;32;20115;-58
2023/09/02 18:37:52;;;;;;;13.07;7.43;;;18.50;99.90;;;;;;7348105;32;21276;-58
2023/09/02 18:41:54;;;;;;;12.75;8.55;;;18.40;99.90;;;;;;7346488;32;20581;-57
2023/09/02 18:45:55;;;;;;;8.55;7.72;;;18.30;99.90;;;;;;7350230;32;20095;-58
2023/09/02 18:49:57;;;;;;;9.70;7.72;;;18.20;99.90;;;;;;7344894;32;20689;-58
2023/09/02 18:53:59;;;;;;;11.43;7.28;;;18.10;99.90;;;;;;7347892;32;20126;-58
2023/09/02 18:58:02;;;;;;;8.65;7.40;;;18.00;99.90;;;;;;7352449;32;20207;-58
2023/09/02 19:02:04;;;;;;;7.70;6.90;;;17.80;99.90;;;;;;7344419;32;20346;-57
2023/09/02 19:06:06;;;;;;;8.85;6.80;;;17.80;99.90;;;;;;7348060;32;20173;-57
2023/09/02 19:10:08;;;;;;;10.77;7.45;;;17.80;99.90;;;;;;7309533;32;20560;-58
2023/09/02 19:14:10;;;;;;;8.73;7.10;;;17.70;99.90;;;;;;7341901;32;20122;-58
2023/09/02 19:18:11;;;;;;;9.50;7.60;;;17.50;99.90;;;;;;7346536;32;20125;-57
2023/09/02 19:22:13;;;;;;;9.60;7.70;;;17.40;99.90;;;;;;7282933;32;20262;-55
2023/09/02 19:26:15;;;;;;;9.25;8.00;;;17.30;99.90;;;;;;7348127;32;20175;-57
2023/09/02 19:30:17;;;;;;;9.65;8.48;;;17.20;99.90;;;;;;7345413;32;20122;-57
2023/09/02 19:34:19;;;;;;;10.13;7.97;;;17.10;99.90;;;;;;7352283;32;20119;-58
2023/09/02 19:38:21;;;;;;;9.88;7.07;;;17.00;99.90;;;;;;7343396;32;20639;-58
2023/09/02 19:42:23;;;;;;;9.77;7.22;;;16.90;99.90;;;;;;7353602;32;20476;-58
2023/09/02 19:46:25;;;;;;;10.68;7.10;;;16.80;99.90;;;;;;7346074;32;20333;-57
2023/09/02 19:50:26;;;;;;;10.80;7.12;;;16.80;99.90;;;;;;7321320;32;20644;-58
2023/09/02 19:54:28;;;;;;;7.30;6.55;;;16.80;99.90;;;;;;7343278;32;20190;-58
2023/09/02 19:58:30;;;;;;;14.25;6.70;;;16.70;99.90;;;;;;7319087;32;20231;-59
2023/09/02 20:02:31;;;;;;;7.97;7.15;;;16.60;99.90;;;;;;7347583;32;20208;-57
2023/09/02 20:06:33;;;;;;;9.85;6.97;;;16.50;99.90;;;;;;7337414;32;20126;-57
2023/09/02 20:10:35;;;;;;;11.80;7.20;;;16.40;99.90;;;;;;7348456;32;20117;-57
2023/09/02 20:14:37;;;;;;;10.40;7.37;;;16.30;99.90;;;;;;7351039;32;20190;-57
2023/09/02 20:18:40;;;;;;;10.65;7.55;;;16.30;99.90;;;;;;7341610;32;20271;-57
2023/09/02 20:22:41;;;;;;;9.70;7.12;;;16.30;99.90;;;;;;7344798;32;20218;-57
2023/09/02 20:26:43;;;;;;;7.45;6.65;;;16.20;99.90;;;;;;7314039;32;20125;-57
2023/09/02 20:30:45;;;;;;;8.07;7.03;;;16.10;99.90;;;;;;7289798;32;20091;-56
2023/09/02 20:34:47;;;;;;;8.93;7.40;;;16.00;99.90;;;;;;7346361;32;20224;-58
2023/09/02 20:38:49;;;;;;;7.07;6.25;;;16.00;99.90;;;;;;7349140;32;20129;-58
2023/09/02 20:42:52;;;;;;;9.70;7.12;;;15.90;99.90;;;;;;7349352;32;20114;-58
2023/09/02 20:46:54;;;;;;;12.37;7.05;;;15.90;99.90;;;;;;7288069;32;20297;-59
2023/09/02 20:50:55;;;;;;;15.45;7.28;;;15.80;99.90;;;;;;7344814;32;20222;-57
2023/09/02 20:54:58;;;;;;;9.50;7.57;;;15.80;99.90;;;;;;7348545;32;20604;-57
2023/09/02 20:59:00;;;;;;;10.05;7.00;;;15.70;99.90;;;;;;7345403;32;20111;-58
2023/09/02 21:03:02;;;;;;;10.55;7.22;;;15.70;99.90;;;;;;7318462;32;20267;-57